createdAt,value
2018-11-04T07:23:51.011Z,60.86
2018-11-04T07:24:51.032Z,59.28
2018-11-04T07:25:51.105Z,58.24
2018-11-04T07:26:50.848Z,57.40
2018-11-04T07:27:50.863Z,56.95
2018-11-04T07:28:51.195Z,55.37
2018-11-04T07:29:50.834Z,55.02
2018-11-04T07:30:50.774Z,53.34
2018-11-04T07:31:50.750Z,51.91
2018-11-04T07:32:50.716Z,51.45
2018-11-04T07:33:50.702Z,50.73
2018-11-04T07:34:50.725Z,49.52
2018-11-04T07:35:50.750Z,49.59
2018-11-04T07:36:50.709Z,48.89
2018-11-04T07:37:50.681Z,47.98
2018-11-04T07:38:50.666Z,47.96
2018-11-04T07:39:50.693Z,47.96
2018-11-04T07:40:50.666Z,47.53
2018-11-04T07:41:50.628Z,47.11
2018-11-04T07:44:07.617Z,46.38
2018-11-04T08:11:43.471Z,45.10
2018-11-04T08:12:43.456Z,44.68
2018-11-04T08:16:09.501Z,44.88
2018-11-04T08:17:09.338Z,45.28
2018-11-04T08:18:09.675Z,45.08
2018-11-04T08:19:09.224Z,44.88
2018-11-04T08:20:09.225Z,44.68
2018-11-04T08:21:09.149Z,44.68
2018-11-04T08:22:09.126Z,44.98
2018-11-04T08:23:09.171Z,44.88
2018-11-04T08:42:41.878Z,45.98
2018-11-04T08:43:42.034Z,45.80
2018-11-04T08:44:41.775Z,46.11
2018-11-04T08:45:41.853Z,46.30
2018-11-04T08:46:41.759Z,45.90
2018-11-04T08:47:41.756Z,45.70
2018-11-04T08:48:41.645Z,45.80
2018-11-04T08:49:42.199Z,45.80
2018-11-04T08:50:43.260Z,46.00
2018-11-04T08:51:41.600Z,45.80
2018-11-04T08:52:41.746Z,45.50
2018-11-04T08:53:41.629Z,45.50
2018-11-04T08:54:41.622Z,45.70
2018-11-04T08:55:41.667Z,45.53
2018-11-04T08:56:41.546Z,45.50
2018-11-04T08:57:41.578Z,45.50
2018-11-04T08:58:41.574Z,45.80
2018-11-04T08:59:41.608Z,45.70
2018-11-04T09:00:42.270Z,45.62
2018-11-04T09:01:42.263Z,45.62
2018-11-04T09:02:42.282Z,45.62
2018-11-04T09:03:41.434Z,45.72
2018-11-04T09:04:41.420Z,46.62
2018-11-04T09:05:41.421Z,46.42
2018-11-04T09:06:41.473Z,46.23
2018-11-04T09:07:41.497Z,46.42
2018-11-04T09:08:41.398Z,46.42
2018-11-04T09:09:41.391Z,46.53
2018-11-04T09:10:41.449Z,46.12
2018-11-04T09:11:41.390Z,46.15
2018-11-04T09:13:58.514Z,47.35
2018-11-04T09:14:58.434Z,47.05
2018-11-04T09:15:58.433Z,47.25
2018-11-04T09:16:58.388Z,46.95
2018-11-04T09:17:58.526Z,47.35
2018-11-04T09:18:58.285Z,46.95
2018-11-04T09:19:58.243Z,47.07
2018-11-04T09:20:58.317Z,47.75
2018-11-04T09:21:58.450Z,47.38
2018-11-04T09:22:58.892Z,47.38
2018-11-04T09:23:58.260Z,47.67
2018-11-04T09:24:58.235Z,47.58
2018-11-04T09:25:58.191Z,47.58
2018-11-04T09:26:58.165Z,47.88
2018-11-04T09:28:02.782Z,47.58
2018-11-04T09:28:58.197Z,47.07
2018-11-04T09:29:58.145Z,47.58
2018-11-04T09:30:58.193Z,47.38
2018-11-04T09:31:58.165Z,47.77
2018-11-04T09:32:58.117Z,47.27
2018-11-04T09:42:04.186Z,46.75
2018-11-04T09:43:04.051Z,46.75
2018-11-04T09:46:56.218Z,46.15
2018-11-04T09:47:55.583Z,46.15
2018-11-04T09:48:55.644Z,46.95
2018-11-04T09:49:55.643Z,47.27
2018-11-04T09:50:55.492Z,47.25
2018-11-04T09:51:55.465Z,47.05
2018-11-04T09:52:55.434Z,47.35
2018-11-04T09:55:25.334Z,47.55
2018-11-04T09:56:32.705Z,47.75
2018-11-04T09:57:25.599Z,47.75
2018-11-04T10:14:08.766Z,46.18
2018-11-04T10:16:24.328Z,46.18
2018-11-04T10:17:26.948Z,46.18
2018-11-04T10:18:37.348Z,46.18
2018-11-04T10:21:25.167Z,46.18
2018-11-04T10:24:39.591Z,46.18
2018-11-04T10:25:36.800Z,46.28
2018-11-04T10:26:36.792Z,46.28
2018-11-04T10:27:36.714Z,45.76
2018-11-04T10:28:36.706Z,46.28
2018-11-04T10:29:36.644Z,45.78
2018-11-04T10:30:36.644Z,45.98
2018-11-04T10:31:36.621Z,45.88
2018-11-04T10:32:36.579Z,45.78
2018-11-04T10:50:57.150Z,46.78
2018-11-04T10:51:55.466Z,46.18
2018-11-04T10:52:55.831Z,46.30
2018-11-04T10:54:05.136Z,46.41
2018-11-04T10:54:55.300Z,46.50
2018-11-04T10:55:55.360Z,46.50
2018-11-04T11:02:52.219Z,46.00
2018-11-04T11:03:50.946Z,46.30
2018-11-04T11:04:55.826Z,46.30
2018-11-04T11:05:50.951Z,46.30
2018-11-04T11:10:47.867Z,46.12
2018-11-04T11:11:46.848Z,46.91
2018-11-04T11:12:46.583Z,46.62
2018-11-04T11:13:46.429Z,47.31
2018-11-04T11:14:46.427Z,47.53
2018-11-04T11:15:46.421Z,47.23
2018-11-04T11:16:46.390Z,47.13
2018-11-04T11:17:46.399Z,47.23
2018-11-04T11:18:46.402Z,47.43
2018-11-04T11:19:46.360Z,46.93
2018-11-04T11:20:46.349Z,47.33
2018-11-04T11:21:46.353Z,47.23
2018-11-04T11:22:46.533Z,47.63
2018-11-04T11:23:46.348Z,46.93
2018-11-04T11:24:46.322Z,47.53
2018-11-04T11:25:46.316Z,47.23
2018-11-04T11:26:46.285Z,47.23
2018-11-04T11:27:46.308Z,47.23
2018-11-04T11:28:46.278Z,47.43
2018-11-04T11:29:46.278Z,47.23
2018-11-04T11:30:46.290Z,47.23
2018-11-04T11:31:46.232Z,47.83
2018-11-04T11:32:46.222Z,47.63
2018-11-04T11:33:46.229Z,47.53
2018-11-04T11:34:46.221Z,47.13
2018-11-04T11:35:46.186Z,47.63
2018-11-04T11:36:46.177Z,47.00
2018-11-04T11:37:46.230Z,47.20
2018-11-04T11:38:46.176Z,47.43
2018-11-04T11:39:46.166Z,48.01
2018-11-04T11:40:46.143Z,47.83
2018-11-04T11:41:46.123Z,47.81
2018-11-04T11:42:46.184Z,47.81
2018-11-04T11:43:46.176Z,47.81
2018-11-04T11:44:46.105Z,47.81
2018-11-04T11:45:46.112Z,47.63
2018-11-04T11:46:46.242Z,47.50
2018-11-04T11:47:46.111Z,47.81
2018-11-04T11:48:46.168Z,47.61
2018-11-04T11:49:46.059Z,47.41
2018-11-04T11:50:46.034Z,47.61
2018-11-04T11:55:04.794Z,47.58
2018-11-04T12:06:43.726Z,46.16
2018-11-04T12:13:43.716Z,46.26
2018-11-04T12:14:43.713Z,46.26
2018-11-04T12:15:45.258Z,46.46
2018-11-04T12:22:06.757Z,45.96
2018-11-04T12:23:06.841Z,45.86
2018-11-04T12:31:02.837Z,46.26
2018-11-04T13:03:54.866Z,47.41
2018-11-04T13:04:53.404Z,47.71
2018-11-04T13:05:53.297Z,47.50
2018-11-04T13:06:53.249Z,47.71
2018-11-04T13:07:53.180Z,47.71
2018-11-04T13:08:53.158Z,47.91
2018-11-04T13:09:53.160Z,47.91
2018-11-04T13:10:53.185Z,47.61
2018-11-04T13:11:56.308Z,47.61
2018-11-04T13:13:01.079Z,47.71
2018-11-04T13:14:06.726Z,48.61
2018-11-04T13:16:23.950Z,48.21
2018-11-04T13:17:18.280Z,47.50
2018-11-04T13:18:18.255Z,47.61
2018-11-04T13:19:18.192Z,47.71
2018-11-04T13:20:18.193Z,47.71
2018-11-04T13:21:18.214Z,47.71
2018-11-04T13:22:18.226Z,47.50
2018-11-04T13:23:18.225Z,47.61
2018-11-04T13:24:18.183Z,47.41
2018-11-04T13:25:18.924Z,47.71
2018-11-04T13:26:18.113Z,47.71
2018-11-04T13:27:18.116Z,47.71
2018-11-04T13:28:18.082Z,47.71
2018-11-04T13:29:18.080Z,47.61
2018-11-04T13:30:18.107Z,47.71
2018-11-04T13:31:18.072Z,47.71
2018-11-04T13:32:18.053Z,47.78
2018-11-04T13:33:18.059Z,47.28
2018-11-04T13:34:18.010Z,47.38
2018-11-04T13:35:18.010Z,47.69
2018-11-04T13:36:18.010Z,47.58
2018-11-04T13:37:17.993Z,47.38
2018-11-04T13:38:17.986Z,47.08
2018-11-04T13:39:18.093Z,47.58
2018-11-04T13:40:17.997Z,47.28
2018-11-04T13:41:17.940Z,47.58
2018-11-04T13:42:17.952Z,47.19
2018-11-04T13:43:18.050Z,46.98
2018-11-04T13:44:17.904Z,47.19
2018-11-04T13:45:17.923Z,47.28
2018-11-04T13:46:17.948Z,46.88
2018-11-04T13:47:21.776Z,47.19
2018-11-04T13:49:39.491Z,46.06
2018-11-04T13:50:38.551Z,46.26
2018-11-04T13:51:38.450Z,46.16
2018-11-04T13:52:38.405Z,45.96
2018-11-04T13:53:38.382Z,46.36
2018-11-04T13:54:38.362Z,46.36
2018-11-04T13:55:38.331Z,46.36
2018-11-04T13:56:38.366Z,46.36
2018-11-04T13:57:38.329Z,46.56
2018-11-04T13:58:38.320Z,46.36
2018-11-04T13:59:38.305Z,46.46
2018-11-04T14:00:38.317Z,46.16
2018-11-04T14:01:38.288Z,46.16
2018-11-04T14:02:38.360Z,46.16
2018-11-04T14:03:38.287Z,46.06
2018-11-04T14:04:38.241Z,46.36
2018-11-04T14:05:38.256Z,46.36
2018-11-04T14:06:38.245Z,46.26
2018-11-04T14:07:38.292Z,46.26
2018-11-04T14:08:38.211Z,46.46
2018-11-04T14:09:38.203Z,46.36
2018-11-04T14:10:38.170Z,46.26
2018-11-04T14:11:38.166Z,46.26
2018-11-04T14:12:38.280Z,46.16
2018-11-04T14:13:38.196Z,46.16
2018-11-04T14:14:38.150Z,46.18
2018-11-04T14:15:38.121Z,46.28
2018-11-04T14:16:40.865Z,46.06
2018-11-04T14:17:38.100Z,46.18
2018-11-04T14:18:38.126Z,46.18
2018-11-04T14:19:38.096Z,46.28
2018-11-04T14:20:38.072Z,46.38
2018-11-04T14:21:38.113Z,46.08
2018-11-04T14:22:38.067Z,46.48
2018-11-04T14:23:38.061Z,46.38
2018-11-04T14:24:38.057Z,46.48
2018-11-04T14:25:38.030Z,46.58
2018-11-04T14:26:38.047Z,46.28
2018-11-04T14:27:38.028Z,46.28
2018-11-04T14:28:38.025Z,46.38
2018-11-04T14:29:38.024Z,46.38
2018-11-04T14:30:37.974Z,46.18
2018-11-04T14:31:37.985Z,46.48
2018-11-04T14:32:37.925Z,46.38
2018-11-04T14:33:37.944Z,46.28
2018-11-04T14:34:37.926Z,45.98
2018-11-04T14:35:37.933Z,46.28
2018-11-04T14:36:37.954Z,46.08
2018-11-04T14:37:37.875Z,46.11
2018-11-04T14:38:37.888Z,46.11
2018-11-04T14:39:37.936Z,46.00
2018-11-04T14:40:37.848Z,46.11
2018-11-04T14:41:37.882Z,46.20
2018-11-04T14:42:37.832Z,46.20
2018-11-04T14:43:37.878Z,46.20
2018-11-04T14:44:37.918Z,46.20
2018-11-04T14:45:37.836Z,46.20
2018-11-04T14:46:37.799Z,46.20
2018-11-04T14:47:37.816Z,46.20
2018-11-04T14:48:37.835Z,46.20
2018-11-04T14:49:37.755Z,46.30
2018-11-04T14:50:38.143Z,46.11
2018-11-04T14:51:37.750Z,46.20
2018-11-04T14:52:37.719Z,46.20
2018-11-04T14:53:37.746Z,46.41
2018-11-04T14:54:37.705Z,46.50
2018-11-04T14:55:37.728Z,46.20
2018-11-04T14:56:37.666Z,46.20
2018-11-04T14:57:37.658Z,46.50
2018-11-04T14:58:37.728Z,46.41
2018-11-04T14:59:37.642Z,46.30
2018-11-04T15:00:37.686Z,46.41
2018-11-04T15:01:37.722Z,46.11
2018-11-04T15:02:37.604Z,46.30
2018-11-04T15:03:37.610Z,46.11
2018-11-04T15:04:37.784Z,46.20
2018-11-04T15:05:39.444Z,46.11
2018-11-04T15:06:37.609Z,46.11
2018-11-04T15:07:37.770Z,46.20
2018-11-04T15:08:37.596Z,46.30
2018-11-04T15:09:37.545Z,46.30
2018-11-04T15:10:38.380Z,46.41
2018-11-04T15:11:37.582Z,46.30
2018-11-04T15:12:37.615Z,46.41
2018-11-04T15:13:37.525Z,46.18
2018-11-04T15:14:37.477Z,46.61
2018-11-04T15:15:37.472Z,46.38
2018-11-04T15:16:37.531Z,46.28
2018-11-04T15:17:37.466Z,46.28
2018-11-04T15:18:37.485Z,45.98
2018-11-04T15:19:37.436Z,46.08
2018-11-04T15:20:37.429Z,46.28
2018-11-04T15:21:37.443Z,46.08
2018-11-04T15:22:37.455Z,46.38
2018-11-04T15:23:37.390Z,46.28
2018-11-04T15:24:37.388Z,46.08
2018-11-04T15:25:37.369Z,45.78
2018-11-04T15:26:37.437Z,46.18
2018-11-04T15:27:37.341Z,45.78
2018-11-04T15:28:37.344Z,46.48
2018-11-04T15:29:37.831Z,46.08
2018-11-04T15:30:37.359Z,46.06
2018-11-04T15:31:37.289Z,45.78
2018-11-04T15:32:37.331Z,45.88
2018-11-04T15:33:37.443Z,45.88
2018-11-04T15:34:37.475Z,45.78
2018-11-04T15:35:37.253Z,45.88
2018-11-04T15:36:37.274Z,45.78
2018-11-04T15:37:37.306Z,45.86
2018-11-04T15:38:37.424Z,46.08
2018-11-04T15:39:37.248Z,46.18
2018-11-04T15:40:38.214Z,46.98
2018-11-04T15:41:45.479Z,47.19
2018-11-04T15:42:37.348Z,46.88
2018-11-04T15:43:37.403Z,47.19
2018-11-04T15:44:37.285Z,47.19
2018-11-04T15:45:37.297Z,46.98
2018-11-04T15:46:37.174Z,47.19
2018-11-04T15:47:37.147Z,46.68
2018-11-04T15:48:37.139Z,47.28
2018-11-04T15:49:37.118Z,47.19
2018-11-04T15:50:37.090Z,47.19
2018-11-04T15:51:37.075Z,46.68
2018-11-04T15:52:37.102Z,46.58
2018-11-04T15:53:37.082Z,46.88
2018-11-04T15:54:37.072Z,46.68
2018-11-04T15:55:37.057Z,45.98
2018-11-04T15:56:37.025Z,46.88
2018-11-04T15:57:37.982Z,46.08
2018-11-04T15:58:37.034Z,46.08
2018-11-04T15:59:37.000Z,46.08
2018-11-04T16:00:37.026Z,46.11
2018-11-04T16:01:36.967Z,46.11
2018-11-04T16:02:36.963Z,46.11
2018-11-04T16:03:36.968Z,46.11
2018-11-04T16:04:44.550Z,46.11
2018-11-04T16:05:37.001Z,46.61
2018-11-04T16:06:36.977Z,46.50
2018-11-04T16:07:36.915Z,46.91
2018-11-04T16:08:36.902Z,46.91
2018-11-04T16:09:36.877Z,47.00
2018-11-04T16:10:36.867Z,47.20
2018-11-04T16:11:36.861Z,47.50
2018-11-04T16:12:36.999Z,47.20
2018-11-04T16:13:36.890Z,47.20
2018-11-04T16:14:36.836Z,47.20
2018-11-04T16:15:36.822Z,47.11
2018-11-04T16:16:36.910Z,47.11
2018-11-04T16:17:36.821Z,47.31
2018-11-04T16:18:36.893Z,47.11
2018-11-04T16:19:36.787Z,47.11
2018-11-04T16:20:36.767Z,47.03
2018-11-04T16:21:36.752Z,47.03
2018-11-04T16:22:36.769Z,46.93
2018-11-04T16:23:36.761Z,47.00
2018-11-04T16:24:36.751Z,47.20
2018-11-04T16:25:36.835Z,47.31
2018-11-04T16:26:36.693Z,47.31
2018-11-04T16:27:36.682Z,47.31
2018-11-04T16:28:36.743Z,47.20
2018-11-04T16:29:36.685Z,47.23
2018-11-04T16:30:36.651Z,47.61
2018-11-04T16:31:36.641Z,47.00
2018-11-04T16:32:36.632Z,47.71
2018-11-04T16:33:36.664Z,47.11
2018-11-04T16:34:36.624Z,47.53
2018-11-04T16:35:36.615Z,47.41
2018-11-04T16:36:36.585Z,47.63
2018-11-04T16:37:36.616Z,47.00
2018-11-04T16:38:36.570Z,47.50
2018-11-04T16:39:36.599Z,47.43
2018-11-04T16:40:36.567Z,47.73
2018-11-04T16:41:36.548Z,47.50
2018-11-04T16:42:36.559Z,47.20
2018-11-04T16:43:36.675Z,47.20
2018-11-04T16:44:36.622Z,47.31
2018-11-04T16:45:36.495Z,47.31
2018-11-04T16:46:36.494Z,47.00
2018-11-04T16:47:36.487Z,47.31
2018-11-04T16:48:36.516Z,46.91
2018-11-04T16:49:36.501Z,47.20
2018-11-04T16:50:36.432Z,47.19
2018-11-04T16:51:36.428Z,47.20
2018-11-04T16:52:36.432Z,46.58
2018-11-04T16:53:36.408Z,46.98
2018-11-04T16:54:36.445Z,46.68
2018-11-04T16:55:36.473Z,46.58
2018-11-04T16:56:36.372Z,46.18
2018-11-04T16:57:36.354Z,46.08
2018-11-04T16:58:36.360Z,46.08
2018-11-04T16:59:36.355Z,45.98
2018-11-04T17:00:36.328Z,46.18
2018-11-04T17:01:36.351Z,46.18
2018-11-04T17:02:36.305Z,46.08
2018-11-04T17:03:36.308Z,46.18
2018-11-04T17:04:36.322Z,46.18
2018-11-04T17:05:36.475Z,46.08
2018-11-04T17:06:36.511Z,46.38
2018-11-04T17:07:36.308Z,46.18
2018-11-04T17:08:36.262Z,46.38
2018-11-04T17:09:36.242Z,46.18
2018-11-04T17:10:36.302Z,46.38
2018-11-04T17:11:36.307Z,46.38
2018-11-04T17:12:36.209Z,46.28
2018-11-04T17:13:36.183Z,46.28
2018-11-04T17:14:36.186Z,45.98
2018-11-04T17:15:36.182Z,46.08
2018-11-04T17:16:36.184Z,46.28
2018-11-04T17:17:36.131Z,46.18
2018-11-04T17:18:36.158Z,46.48
2018-11-04T17:19:36.116Z,46.08
2018-11-04T17:20:36.171Z,46.08
2018-11-04T17:21:36.109Z,46.30
2018-11-04T17:22:36.093Z,46.18
2018-11-04T17:23:36.091Z,45.98
2018-11-04T17:24:36.098Z,46.18
2018-11-04T17:25:36.094Z,46.08
2018-11-04T17:26:36.073Z,46.08
2018-11-04T17:27:36.044Z,46.20
2018-11-04T17:28:36.038Z,46.18
2018-11-04T17:31:04.598Z,46.11
2018-11-04T17:32:03.792Z,46.08
2018-11-04T17:33:03.800Z,46.11
2018-11-04T17:34:03.639Z,46.20
2018-11-04T17:35:03.613Z,46.20
2018-11-04T17:36:03.699Z,46.81
2018-11-04T17:37:03.606Z,46.61
2018-11-04T17:38:03.584Z,46.70
2018-11-04T17:39:03.567Z,46.61
2018-11-04T17:40:03.577Z,46.81
2018-11-04T17:41:03.565Z,46.61
2018-11-04T17:42:03.599Z,47.00
2018-11-04T17:43:03.504Z,47.00
2018-11-04T17:44:03.580Z,47.00
2018-11-04T17:45:03.495Z,46.62
2018-11-04T17:46:03.486Z,46.33
2018-11-04T17:47:03.530Z,47.20
2018-11-04T17:48:03.467Z,46.42
2018-11-04T17:49:03.453Z,47.00
2018-11-04T17:50:03.487Z,46.91
2018-11-04T17:51:03.430Z,47.23
2018-11-04T17:52:03.433Z,47.20
2018-11-04T17:53:03.411Z,47.11
2018-11-04T17:54:03.416Z,47.11
2018-11-04T17:55:03.394Z,46.70
2018-11-04T17:56:03.425Z,47.20
2018-11-04T17:57:03.404Z,47.13
2018-11-04T17:58:03.383Z,46.93
2018-11-04T17:59:03.380Z,46.93
2018-11-04T18:00:03.440Z,46.93
2018-11-04T18:01:03.362Z,46.93
2018-11-04T18:02:03.389Z,46.91
2018-11-04T18:03:03.356Z,46.93
2018-11-04T18:04:03.330Z,47.03
2018-11-04T18:05:03.356Z,47.23
2018-11-04T18:06:03.319Z,47.03
2018-11-04T18:07:03.338Z,47.13
2018-11-04T18:08:03.304Z,47.13
2018-11-04T18:09:03.285Z,47.03
2018-11-04T18:10:03.249Z,47.23
2018-11-04T18:11:03.264Z,47.23
2018-11-04T18:12:03.291Z,47.13
2018-11-04T18:13:03.257Z,47.13
2018-11-04T18:14:03.200Z,47.13
2018-11-04T18:15:03.180Z,47.13
2018-11-04T18:16:03.189Z,47.03
2018-11-04T18:17:03.219Z,46.93
2018-11-04T18:18:03.169Z,47.23
2018-11-04T18:19:03.979Z,47.03
2018-11-04T18:20:03.128Z,47.03
2018-11-04T18:21:03.115Z,47.13
2018-11-04T18:22:03.131Z,47.03
2018-11-04T18:23:03.118Z,46.93
2018-11-04T18:24:03.131Z,46.93
2018-11-04T18:25:03.146Z,46.93
2018-11-04T18:26:03.147Z,46.95
2018-11-04T18:27:03.106Z,47.33
2018-11-04T18:28:03.089Z,46.95
2018-11-04T18:29:03.064Z,46.95
2018-11-04T18:30:03.042Z,47.35
2018-11-04T18:31:03.067Z,47.33
2018-11-04T18:32:03.060Z,47.33
2018-11-04T18:33:03.079Z,47.25
2018-11-04T18:34:03.111Z,47.33
2018-11-04T18:35:03.002Z,47.33
2018-11-04T18:36:03.012Z,47.75
2018-11-04T18:37:02.998Z,47.35
2018-11-04T18:38:03.093Z,47.25
2018-11-04T18:39:02.941Z,47.35
2018-11-04T18:40:02.942Z,47.23
2018-11-04T18:41:02.910Z,47.55
2018-11-04T18:42:02.918Z,47.35
2018-11-04T18:43:02.929Z,47.75
2018-11-04T18:44:02.967Z,47.75
2018-11-04T18:45:02.893Z,47.75
2018-11-04T18:46:02.895Z,47.35
2018-11-04T18:47:02.862Z,47.55
2018-11-04T18:48:02.847Z,47.55
2018-11-04T18:49:02.881Z,47.75
2018-11-04T18:50:02.828Z,47.45
2018-11-04T18:51:02.819Z,47.65
2018-11-04T18:52:02.830Z,47.65
2018-11-04T18:53:02.859Z,47.75
2018-11-04T18:54:02.822Z,47.55
2018-11-04T18:55:02.782Z,47.85
2018-11-04T18:56:02.751Z,47.55
2018-11-04T18:57:02.764Z,47.75
2018-11-04T18:58:02.748Z,47.65
2018-11-04T18:59:02.769Z,47.55
2018-11-04T19:00:02.713Z,47.65
2018-11-04T19:01:02.716Z,47.55
2018-11-04T19:02:02.726Z,47.55
2018-11-04T19:03:02.745Z,47.15
2018-11-04T19:04:02.676Z,47.47
2018-11-04T19:05:02.650Z,47.67
2018-11-04T19:06:02.637Z,47.55
2018-11-04T19:07:02.626Z,47.15
2018-11-04T19:08:02.660Z,47.47
2018-11-04T19:09:02.620Z,47.45
2018-11-04T19:10:02.588Z,47.55
2018-11-04T19:11:02.693Z,47.15
2018-11-04T19:12:02.645Z,47.15
2018-11-04T19:13:02.617Z,47.58
2018-11-04T19:14:02.632Z,47.65
2018-11-04T19:15:02.567Z,47.55
2018-11-04T19:16:02.577Z,47.45
2018-11-04T19:17:02.625Z,47.65
2018-11-04T19:18:02.532Z,47.35
2018-11-04T19:19:02.693Z,47.65
2018-11-04T19:20:02.576Z,47.75
2018-11-04T19:21:02.524Z,47.55
2018-11-04T19:22:02.494Z,47.75
2018-11-04T19:23:02.503Z,47.75
2018-11-04T19:24:02.501Z,47.25
2018-11-04T19:25:02.519Z,47.88
2018-11-04T19:26:02.499Z,47.17
2018-11-04T19:27:02.439Z,47.77
2018-11-04T19:28:02.442Z,47.75
2018-11-04T19:29:02.432Z,47.88
2018-11-04T19:30:02.408Z,47.27
2018-11-04T19:31:02.464Z,47.88
2018-11-04T19:32:02.391Z,47.67
2018-11-04T19:33:02.376Z,47.17
2018-11-04T19:34:02.411Z,47.58
2018-11-04T19:35:02.594Z,47.27
2018-11-04T19:36:02.422Z,47.77
2018-11-04T19:37:02.352Z,47.88
2018-11-04T19:38:02.391Z,47.77
2018-11-04T19:39:02.291Z,47.27
2018-11-04T19:40:02.361Z,47.77
2018-11-04T19:41:02.304Z,47.77
2018-11-04T19:42:02.290Z,47.58
2018-11-04T19:43:02.355Z,47.88
2018-11-04T19:44:02.303Z,47.88
2018-11-04T19:45:02.391Z,47.58
2018-11-04T19:46:02.274Z,47.47
2018-11-04T19:47:02.304Z,47.58
2018-11-04T19:48:02.229Z,47.38
2018-11-04T19:49:02.194Z,47.47
2018-11-04T19:50:02.212Z,47.88
2018-11-04T19:51:02.291Z,47.77
2018-11-04T19:52:02.218Z,47.77
2018-11-04T19:53:02.176Z,47.58
2018-11-04T19:54:02.226Z,47.58
2018-11-04T19:55:02.135Z,47.67
2018-11-04T19:56:02.173Z,47.58
2018-11-04T19:57:02.102Z,47.77
2018-11-04T19:58:02.127Z,47.77
2018-11-04T19:59:02.210Z,47.77
2018-11-04T20:00:02.105Z,47.77
2018-11-04T20:01:02.111Z,47.27
2018-11-04T20:02:02.143Z,47.47
2018-11-04T20:03:02.045Z,47.88
2018-11-04T20:04:02.083Z,47.27
2018-11-04T20:05:02.067Z,47.80
2018-11-04T20:06:02.194Z,47.67
2018-11-04T20:07:02.088Z,47.67
2018-11-04T20:08:02.018Z,47.58
2018-11-04T20:09:01.949Z,47.67
2018-11-04T20:10:01.966Z,48.30
2018-11-04T20:11:01.941Z,47.70
2018-11-04T20:12:01.933Z,47.50
2018-11-04T20:13:01.944Z,47.70
2018-11-04T20:14:01.886Z,47.67
2018-11-04T20:15:01.909Z,47.80
2018-11-04T20:16:01.910Z,47.60
2018-11-04T20:17:01.868Z,47.70
2018-11-04T20:18:01.881Z,47.70
2018-11-04T20:19:01.895Z,47.60
2018-11-04T20:20:01.993Z,47.70
2018-11-04T20:21:01.832Z,47.80
2018-11-04T20:22:01.796Z,47.60
2018-11-04T20:23:01.793Z,47.90
2018-11-04T20:24:01.828Z,47.80
2018-11-04T20:25:01.815Z,47.80
2018-11-04T20:26:01.786Z,47.80
2018-11-04T20:27:01.777Z,47.80
2018-11-04T20:28:01.758Z,47.90
2018-11-04T20:29:01.744Z,47.60
2018-11-04T20:30:01.709Z,47.50
2018-11-04T20:31:01.744Z,47.80
2018-11-04T20:32:01.714Z,47.50
2018-11-04T20:33:01.716Z,47.70
2018-11-04T20:34:01.816Z,47.80
2018-11-04T20:35:01.677Z,47.77
2018-11-04T20:36:01.847Z,47.80
2018-11-04T20:37:01.640Z,47.80
2018-11-04T20:38:01.643Z,48.00
2018-11-04T20:39:01.659Z,47.60
2018-11-04T20:40:01.632Z,47.80
2018-11-04T20:41:01.644Z,48.00
2018-11-04T20:42:01.585Z,47.60
2018-11-04T20:43:01.604Z,47.80
2018-11-04T20:44:01.614Z,47.70
2018-11-04T20:45:01.728Z,47.70
2018-11-04T20:46:01.553Z,47.80
2018-11-04T20:47:01.577Z,47.80
2018-11-04T20:48:01.557Z,47.70
2018-11-04T20:49:01.518Z,48.00
2018-11-04T20:50:01.499Z,47.70
2018-11-04T20:51:01.521Z,47.70
2018-11-04T20:52:01.621Z,47.70
2018-11-04T20:53:01.479Z,47.70
2018-11-04T20:54:01.480Z,47.80
2018-11-04T20:55:01.452Z,47.70
2018-11-04T20:56:01.474Z,47.70
2018-11-04T20:57:01.455Z,47.50
2018-11-04T20:58:01.562Z,47.80
2018-11-04T20:59:01.438Z,47.50
2018-11-04T21:00:01.429Z,47.70
2018-11-04T21:01:01.383Z,47.70
2018-11-04T21:02:01.443Z,47.90
2018-11-04T21:03:01.415Z,47.80
2018-11-04T21:04:01.474Z,47.70
2018-11-04T21:05:01.355Z,47.70
2018-11-04T21:06:01.365Z,47.80
2018-11-04T21:07:01.378Z,47.60
2018-11-04T21:08:01.342Z,47.60
2018-11-04T21:09:01.319Z,47.70
2018-11-04T21:10:01.384Z,47.60
2018-11-04T21:11:01.311Z,47.50
2018-11-04T21:12:01.294Z,47.50
2018-11-04T21:13:01.300Z,47.70
2018-11-04T21:14:01.249Z,47.70
2018-11-04T21:15:01.252Z,47.70
2018-11-04T21:16:01.269Z,47.60
2018-11-04T21:17:01.265Z,47.60
2018-11-04T21:18:01.192Z,47.60
2018-11-04T21:19:01.193Z,47.50
2018-11-04T21:20:01.183Z,47.60
2018-11-04T21:21:01.229Z,47.50
2018-11-04T21:22:01.210Z,47.60
2018-11-04T21:23:01.151Z,47.70
2018-11-04T21:24:01.150Z,47.60
2018-11-04T21:25:01.129Z,47.70
2018-11-04T21:26:01.261Z,47.50
2018-11-04T21:27:01.137Z,47.70
2018-11-04T21:28:01.142Z,47.70
2018-11-04T21:29:01.245Z,47.70
2018-11-04T21:30:01.069Z,47.70
2018-11-04T21:31:01.136Z,47.80
2018-11-04T21:32:01.062Z,47.70
2018-11-04T21:33:01.049Z,47.82
2018-11-04T21:34:01.055Z,47.80
2018-11-04T21:35:01.015Z,47.60
2018-11-04T21:36:01.009Z,47.70
2018-11-04T21:37:01.033Z,47.80
2018-11-04T21:38:01.092Z,47.80
2018-11-04T21:39:00.968Z,47.80
2018-11-04T21:40:00.981Z,47.80
2018-11-04T21:41:00.954Z,47.62
2018-11-04T21:42:00.936Z,47.70
2018-11-04T21:43:00.989Z,47.52
2018-11-04T21:44:01.139Z,47.80
2018-11-04T21:45:00.913Z,48.60
2018-11-04T21:46:00.901Z,47.82
2018-11-04T21:47:00.885Z,48.60
2018-11-04T21:48:00.900Z,47.72
2018-11-04T21:49:00.907Z,47.62
2018-11-04T21:50:00.849Z,47.32
2018-11-04T21:51:00.935Z,47.34
2018-11-04T21:52:00.864Z,48.09
2018-11-04T21:53:00.896Z,49.62
2018-11-04T21:54:00.802Z,50.57
2018-11-04T21:55:00.874Z,51.53
2018-11-04T21:56:00.908Z,51.96
2018-11-04T21:57:00.796Z,53.60
2018-11-04T21:58:00.823Z,53.93
2018-11-04T21:59:00.799Z,55.14
2018-11-04T22:00:00.755Z,54.86
2018-11-04T22:01:00.795Z,55.27
2018-11-04T22:02:00.720Z,55.40
2018-11-04T22:03:00.812Z,55.49
2018-11-04T22:04:01.028Z,55.62
2018-11-04T22:05:00.702Z,55.62
2018-11-04T22:06:00.757Z,56.43
2018-11-04T22:07:00.696Z,56.63
2018-11-04T22:08:00.809Z,56.43
2018-11-04T22:09:00.655Z,56.76
2018-11-04T22:10:00.637Z,56.86
2018-11-04T22:11:00.629Z,56.76
2018-11-04T22:12:00.619Z,57.07
2018-11-04T22:13:00.705Z,57.27
2018-11-04T22:14:00.747Z,57.20
2018-11-04T22:15:00.585Z,57.40
2018-11-04T22:16:00.569Z,57.40
2018-11-04T22:17:00.638Z,57.50
2018-11-04T22:18:00.590Z,57.50
2018-11-04T22:19:00.545Z,57.80
2018-11-04T22:20:00.625Z,57.60
2018-11-04T22:21:00.542Z,57.29
2018-11-04T22:22:00.501Z,57.60
2018-11-04T22:23:00.538Z,57.90
2018-11-04T22:24:00.522Z,57.29
2018-11-04T22:25:00.486Z,57.40
2018-11-04T22:26:00.467Z,57.60
2018-11-04T22:27:00.452Z,58.51
2018-11-04T22:28:00.496Z,57.50
2018-11-04T22:29:00.457Z,57.90
2018-11-04T22:30:00.427Z,58.11
2018-11-04T22:31:00.459Z,58.20
2018-11-04T22:32:00.427Z,57.90
2018-11-04T22:33:00.510Z,57.90
2018-11-04T22:34:00.390Z,58.00
2018-11-04T22:35:00.395Z,57.90
2018-11-04T22:36:00.390Z,58.03
2018-11-04T22:37:00.421Z,57.90
2018-11-04T22:38:00.376Z,57.93
2018-11-04T22:39:00.348Z,58.13
2018-11-04T22:40:00.338Z,57.83
2018-11-04T22:41:00.344Z,57.83
2018-11-04T22:42:00.333Z,58.34
2018-11-04T22:43:00.362Z,58.03
2018-11-04T22:44:00.278Z,58.13
2018-11-04T22:45:00.296Z,58.13
2018-11-04T22:46:00.264Z,58.44
2018-11-04T22:47:00.349Z,58.13
2018-11-04T22:48:00.540Z,58.44
2018-11-04T22:49:00.226Z,58.54
2018-11-04T22:50:00.282Z,58.94
2018-11-04T22:51:00.327Z,59.45
2018-11-04T22:52:00.188Z,58.47
2018-11-04T22:53:00.214Z,59.07
2018-11-04T22:54:00.168Z,58.94
2018-11-04T22:55:00.213Z,58.84
2018-11-04T22:56:00.225Z,58.87
2018-11-04T22:57:00.177Z,58.94
2018-11-04T22:58:00.131Z,59.17
2018-11-04T22:59:00.179Z,59.17
2018-11-04T23:00:00.196Z,59.17
2018-11-04T23:01:00.111Z,58.94
2018-11-04T23:02:00.149Z,58.67
2018-11-04T23:03:00.103Z,59.07
2018-11-04T23:04:00.577Z,58.76
2018-11-04T23:05:00.086Z,58.67
2018-11-04T23:06:00.051Z,59.48
2018-11-04T23:07:00.059Z,58.67
2018-11-04T23:08:00.080Z,58.56
2018-11-04T23:09:00.063Z,58.67
2018-11-04T23:10:00.068Z,58.76
2018-11-04T23:11:00.046Z,59.45
2018-11-04T23:12:00.009Z,59.14
2018-11-04T23:13:00.011Z,58.76
2018-11-04T23:14:00.001Z,59.27
2018-11-04T23:15:00.046Z,59.48